Aviation Digital Data Service (ADDS)

Output produced by METARs form (2310 UTC 15 August 2018)
found at http://www.aviationweather.gov/adds/metars/
 
WBGB 152300Z 10004KT 070V140 8000 FEW002 FEW015CB SCT150 BKN300 25/24 Q1008 RETS
TAF WBGB 152300Z 1600/1700 10005KT 8000 FEW016 
     BECMG 1607/1609 32008KT
       
WMKB 152300Z 10004KT 5000 HZ FEW025 SCT140 BKN280 25/24 Q1008 NOSIG
TAF WMKB 152300Z 1600/1700 VRB03KT 5000 HZ FEW020 
     BECMG 1605/1607 22010KT 
     BECMG 1615/1616 VRB03KT
       
WMKE 152300Z VRB01KT 6000 FEW004 SCT020 BKN250 25/24 Q1008
TAF WMKE 152300Z 1600/1700 18005KT 9999 SCT016 SCT140 BKN260
       
TAF WMAP 152300Z 1600/1700 15005KT 9999 FEW022 
     PROB30 
     TEMPO 1605/1609 4000 TSRA FEW017CB
       
WBKK 152300Z 10004KT 070V130 9999 FEW014 SCT140 BKN270 26/20 Q1008 NOSIG
TAF WBKK 152300Z 1600/1700 23005KT 9999 FEW014 
     BECMG 1610/1612 11005KT
       
WMKK 152300Z 15004KT 120V180 8000 FEW017CB SCT140 BKN280 26/24 Q1008 NOSIG
TAF WMKK 152300Z 1600/1706 16010KT 7000 FEW030 
     BECMG 1606/1608 FEW017CB 
     BECMG 1614/1615 VRB02KT
       
WMKD 152300Z VRB02KT 1200 BR FEW000 BKN280 24/24 Q1009 TEMPO 3000 HZ
WBGG 152300Z 24004KT 190V290 5000 HZ FEW018 SCT150 BKN300 26/24 Q1009 NOSIG
TAF WBGG 152300Z 1600/1700 16005KT 6000 SCT020 
     BECMG 1605/1607 14008KT 5000 HZ
       
WBKL 152300Z 00000KT 9999 FEW012 BKN290 27/26 Q1008
TAF WBKL 152300Z 1600/1700 27005KT 9999 FEW013
       
WMKL 152300Z VRB02KT 8000 FEW017CB SCT140 BKN270 26/24 Q1008
TAF WMKL 152300Z 1600/1700 VRB02KT 9000 FEW022 BKN280 
     BECMG 1605/1607 18007KT 4000 HZ 
     BECMG 1612/1614 VRB02KT 8000 FEW025
       
WMKM 152300Z VRB02KT 6000 FEW030 SCT150 BKN280 25/24 Q1009
TAF WMKM 152300Z 1600/1700 VRB03KT 8000 FEW030 
     PROB30 
     TEMPO 1605/1609 16007KT 4000 TSRA FEW017CB
       
WBGR 152300Z VRB03KT 5000 BR FEW001 BKN300 26/25 Q1008
TAF WBGR 152300Z 1600/1700 25007KT 8000 FEW016
       
WBGB 152300Z 10004KT 070V140 8000 FEW002 FEW015CB SCT150 BKN300 25/24 Q1008 RETS
TAF WBGB 152300Z 1600/1700 10005KT 8000 FEW016 
     BECMG 1607/1609 32008KT
       
WBGG 152300Z 24004KT 190V290 5000 HZ FEW018 SCT150 BKN300 26/24 Q1009 NOSIG
TAF WBGG 152300Z 1600/1700 16005KT 6000 SCT020 
     BECMG 1605/1607 14008KT 5000 HZ
       
WBGR 152300Z VRB03KT 5000 BR FEW001 BKN300 26/25 Q1008
TAF WBGR 152300Z 1600/1700 25007KT 8000 FEW016
       
WBGS 152300Z VRB02KT 8000 FEW005 SCT018 BKN150 26/24 Q1008
TAF WBGS 152300Z 1600/1700 VRB03KT 8000 SCT018
       
WBGY 152300Z AUTO 00000KT //// // 24/23 Q1008
WBKK 152300Z 10004KT 070V130 9999 FEW014 SCT140 BKN270 26/20 Q1008 NOSIG
TAF WBKK 152300Z 1600/1700 23005KT 9999 FEW014 
     BECMG 1610/1612 11005KT
       
WBKL 152300Z 00000KT 9999 FEW012 BKN290 27/26 Q1008
TAF WBKL 152300Z 1600/1700 27005KT 9999 FEW013
       
WBKS 152300Z VRB02KT 9999 FEW016 BKN300 27/25 Q1007
TAF WBKS 152300Z 1600/1700 22005KT 9999 FEW016
       
WBKT 152300Z 00000KT 9999 FEW014 SCT140 BKN270 24/24 Q1008
WBKW 152300Z 00000KT 9999 FEW017 BKN300 25/24 Q1008
TAF WBKW 152300Z 1600/1700 16007KT 9999 FEW017 
     BECMG 1612/1614 31005KT
       
WBSB 152300Z 22001KT 6000 FEW015 BKN300 27/26 Q1008 NOSIG
TAF WBSB 152300Z 1600/1706 20004KT 7000 FEW015 
     BECMG 1604/1606 30006KT FEW017 FEW018CB
       
WMKP 152230Z VRB02KT 7000 FEW025 SCT140 BKN270 27/24 Q1008 NOSIG
TAF WMKP 152300Z 1600/1700 VRB02KT 8000 FEW020 SCT140 BKN270 
     BECMG 1603/1605 22010KT 5000 HZ 
     BECMG 1615/1617 VRB02KT 7000 FEW025
       
TAF WMBT 152300Z 1600/1700 15005KT 9000 FEW020 
     PROB30 
     TEMPO 1615/1618 7000 -TSRA FEW005 FEW017CB
       
WBKS 152300Z VRB02KT 9999 FEW016 BKN300 27/25 Q1007
TAF WBKS 152300Z 1600/1700 22005KT 9999 FEW016
       
WBGS 152300Z VRB02KT 8000 FEW005 SCT018 BKN150 26/24 Q1008
TAF WBGS 152300Z 1600/1700 VRB03KT 8000 SCT018
       
WMSA 152300Z 00000KT 6000 FEW017CB SCT140 BKN280 26/23 Q1009
TAF WMSA 152300Z 1600/1700 16010KT 8000 FEW025 
     BECMG 1606/1608 FEW017CB 
     BECMG 1613/1614 VRB03KT FEW025
       
WMKA 152300Z VRB02KT 3000 HZ SCT030 BKN280 26/25 Q1008
TAF WMKA 152300Z 1600/1700 VRB02KT 7000 FEW020 BKN300 
     TEMPO 1607/1613 23006KT 6000 
     BECMG 1613/1614 VRB02KT 4000 HZ FEW030
       
WMKI 152300Z 04005KT 5000 HZ FEW030 SCT140 BKN280 25/22 Q1009
TAF WMKI 152300Z 1600/1700 VRB05KT 5000 HZ FEW020 
     BECMG 1604/1606 19010KT 
     BECMG 1614/1616 VRB03KT
       
WMKJ 152300Z 00000KT 4000 BR FEW008 BKN280 24/24 Q1009
TAF WMKJ 152300Z 1600/1700 VRB02KT 8000 FEW025 
     TEMPO 1604/1608 15008KT 4000 TSRA FEW017CB 
     BECMG 1614/1615 VRB02KT
       
WMKC 152300Z VRB02KT 9999 FEW017CB BKN280 26/25 Q1008
TAF WMKC 152300Z 1600/1700 21005KT 9999 FEW018 SCT140 BKN280 
     BECMG 1607/1609 07007KT
       
WMKN 152300Z 23004KT 9000 FEW000 SCT150 BKN300 26/25 Q1008
TAF WMKN 152300Z 1600/1700 18005KT 9999 FEW018 BKN300 
     TEMPO 1610/1612 8000 -TSRA FEW017CB SCT020 BKN140
       
WBKW 152300Z 00000KT 9999 FEW017 BKN300 25/24 Q1008
TAF WBKW 152300Z 1600/1700 16007KT 9999 FEW017 
     BECMG 1612/1614 31005KT